createdAt,value
2019-01-12T00:01:05.863Z,10.60
2019-01-12T00:03:32.932Z,9.70
2019-01-12T00:05:59.950Z,11.53
2019-01-12T00:08:27.203Z,10.60
2019-01-12T00:10:54.354Z,10.60
2019-01-12T00:13:21.400Z,10.43
2019-01-12T00:15:48.454Z,11.17
2019-01-12T00:18:15.449Z,9.80
2019-01-12T00:20:42.447Z,10.10
2019-01-12T00:23:09.388Z,12.10
2019-01-12T00:25:36.446Z,10.23
2019-01-12T00:28:03.485Z,10.63
2019-01-12T00:30:30.743Z,9.27
2019-01-12T00:32:57.786Z,10.73
2019-01-12T00:35:24.837Z,10.33
2019-01-12T00:37:51.891Z,11.70
2019-01-12T00:40:19.751Z,8.93
2019-01-12T00:42:46.803Z,9.60
2019-01-12T00:45:13.858Z,9.27
2019-01-12T00:47:40.897Z,9.40
2019-01-12T00:50:07.952Z,8.47
2019-01-12T00:52:34.992Z,9.70
2019-01-12T00:55:02.043Z,9.33
2019-01-12T00:57:29.095Z,9.47
2019-01-12T00:59:56.138Z,10.57
2019-01-12T01:02:23.186Z,7.87
2019-01-12T01:04:51.874Z,8.20
2019-01-12T01:07:18.927Z,8.80
2019-01-12T01:09:45.970Z,8.57
2019-01-12T01:12:13.019Z,8.97
2019-01-12T01:14:40.073Z,8.73
2019-01-12T01:17:07.116Z,8.80
2019-01-12T01:19:34.108Z,8.87
2019-01-12T01:22:02.597Z,8.63
2019-01-12T01:24:29.597Z,8.13
2019-01-12T01:26:56.625Z,9.60
2019-01-12T01:29:23.596Z,9.53
2019-01-12T01:31:50.635Z,8.63
2019-01-12T01:34:17.683Z,10.13
2019-01-12T01:36:44.740Z,9.47
2019-01-12T01:39:11.781Z,11.67
2019-01-12T01:41:38.828Z,8.70
2019-01-12T01:44:05.829Z,8.50
2019-01-12T01:46:32.822Z,8.20
2019-01-12T01:48:59.879Z,8.90
2019-01-12T01:51:27.351Z,9.40
2019-01-12T01:53:54.380Z,9.30
2019-01-12T01:56:21.427Z,9.43
2019-01-12T01:58:48.480Z,9.33
2019-01-12T02:01:15.684Z,9.30
2019-01-12T02:03:42.676Z,9.07
2019-01-12T02:06:09.723Z,8.20
2019-01-12T02:08:36.776Z,9.97
2019-01-12T02:11:03.820Z,10.43
2019-01-12T02:13:30.869Z,9.20
2019-01-12T02:15:57.922Z,8.30
2019-01-12T02:18:24.967Z,8.10
2019-01-12T02:20:51.918Z,9.90
2019-01-12T02:23:18.959Z,8.50
2019-01-12T02:25:46.725Z,8.57
2019-01-12T02:28:13.790Z,8.83
2019-01-12T02:30:40.828Z,9.33
2019-01-12T02:33:07.870Z,8.03
2019-01-12T02:35:34.922Z,7.33
2019-01-12T02:38:01.973Z,6.57
2019-01-12T02:40:29.017Z,6.43
2019-01-12T02:42:56.029Z,8.57
2019-01-12T02:45:23.011Z,8.13
2019-01-12T02:47:50.061Z,8.40
2019-01-12T02:50:17.116Z,7.87
2019-01-12T02:52:44.156Z,6.83
2019-01-12T02:55:11.414Z,8.13
2019-01-12T02:57:38.457Z,8.13
2019-01-12T03:00:05.609Z,8.40
2019-01-12T03:02:33.445Z,9.27
2019-01-12T03:05:00.442Z,7.97
2019-01-12T03:07:30.355Z,7.47
2019-01-12T03:09:59.618Z,7.50
2019-01-12T03:12:26.697Z,7.83
2019-01-12T03:14:53.737Z,8.90
2019-01-12T03:17:21.196Z,6.20
2019-01-12T03:19:48.187Z,6.87
2019-01-12T03:22:15.189Z,6.63
2019-01-12T03:24:42.392Z,5.80
2019-01-12T03:27:10.212Z,7.00
2019-01-12T03:29:37.255Z,7.67
2019-01-12T03:32:04.307Z,8.90
2019-01-12T03:34:31.358Z,7.50
2019-01-12T03:36:59.615Z,7.73
2019-01-12T03:39:26.677Z,8.57
2019-01-12T03:41:53.731Z,8.67
2019-01-12T03:44:20.780Z,6.73
2019-01-12T03:46:47.822Z,5.90
2019-01-12T03:49:14.876Z,6.67
2019-01-12T03:51:41.920Z,8.80
2019-01-12T03:54:08.970Z,6.77
2019-01-12T03:56:36.020Z,7.43
2019-01-12T03:59:03.064Z,7.67
2019-01-12T04:01:30.129Z,8.97
2019-01-12T04:03:57.167Z,7.90
2019-01-12T04:06:24.825Z,7.70
2019-01-12T04:08:51.873Z,7.33
2019-01-12T04:11:18.929Z,8.57
2019-01-12T04:13:45.970Z,8.03
2019-01-12T04:16:13.018Z,6.93
2019-01-12T04:18:40.072Z,7.13
2019-01-12T04:21:07.117Z,5.97
2019-01-12T04:23:34.116Z,7.30
2019-01-12T04:26:01.161Z,6.67
2019-01-12T04:28:28.159Z,7.33
2019-01-12T04:30:55.219Z,6.33
2019-01-12T04:33:22.255Z,7.57
2019-01-12T04:35:49.304Z,7.50
2019-01-12T04:38:16.356Z,7.17
2019-01-12T04:40:43.912Z,8.17
2019-01-12T04:43:10.965Z,7.27
2019-01-12T04:45:38.013Z,8.13
2019-01-12T04:48:05.168Z,6.97
2019-01-12T04:50:32.210Z,7.60
2019-01-12T04:52:59.261Z,6.87
2019-01-12T04:55:26.304Z,7.87
2019-01-12T04:57:53.360Z,8.50
2019-01-12T05:00:20.416Z,6.70
2019-01-12T05:02:47.468Z,5.57
2019-01-12T05:05:14.480Z,6.57
2019-01-12T05:07:41.446Z,5.80
2019-01-12T05:10:08.512Z,6.70
2019-01-12T05:12:35.546Z,7.77
2019-01-12T05:15:02.796Z,5.33
2019-01-12T05:17:29.784Z,7.20
2019-01-12T05:19:56.792Z,6.50
2019-01-12T05:22:24.149Z,7.63
2019-01-12T05:24:51.195Z,7.57
2019-01-12T05:27:18.314Z,5.33
2019-01-12T05:29:45.294Z,6.43
2019-01-12T05:32:13.420Z,7.27
2019-01-12T05:34:40.518Z,6.83
2019-01-12T05:37:07.564Z,6.60
2019-01-12T05:39:34.610Z,8.27
2019-01-12T05:42:01.664Z,7.37
2019-01-12T05:44:28.660Z,10.43
2019-01-12T05:46:55.657Z,10.23
2019-01-12T05:49:22.701Z,9.23
2019-01-12T05:51:49.749Z,8.87
2019-01-12T05:54:16.804Z,8.03
2019-01-12T05:56:43.853Z,7.97
2019-01-12T05:59:10.905Z,7.03
2019-01-12T06:01:38.057Z,7.30
2019-01-12T06:04:05.197Z,7.33
2019-01-12T06:06:32.351Z,7.20
2019-01-12T06:08:59.402Z,10.80
2019-01-12T06:11:26.445Z,4.83
2019-01-12T06:13:53.493Z,18.13
2019-01-12T06:16:20.551Z,10.27
2019-01-12T06:18:47.695Z,37.83
2019-01-12T06:21:14.638Z,20.63
2019-01-12T06:23:41.696Z,25.50
2019-01-12T06:26:08.842Z,65.23
2019-01-12T06:28:35.889Z,24.17
2019-01-12T06:31:03.005Z,11.57
2019-01-12T06:33:30.085Z,31.67
2019-01-12T06:35:57.137Z,40.40
2019-01-12T06:38:24.155Z,8.93
2019-01-12T06:40:51.440Z,7.53
2019-01-12T06:43:18.483Z,39.77
2019-01-12T06:45:45.556Z,27.90
2019-01-12T06:48:12.585Z,18.57
2019-01-12T06:50:39.628Z,7.40
2019-01-12T06:53:06.676Z,13.53
2019-01-12T06:55:33.730Z,10.37
2019-01-12T06:58:00.772Z,20.00
2019-01-12T07:00:27.776Z,10.03
2019-01-12T07:02:54.888Z,9.87
2019-01-12T07:05:22.122Z,9.60
2019-01-12T07:07:49.278Z,8.27
2019-01-12T07:10:16.336Z,11.67
2019-01-12T07:12:43.520Z,7.93
2019-01-12T07:15:10.591Z,8.93
2019-01-12T07:17:37.570Z,4.93
2019-01-12T07:20:05.439Z,7.60
2019-01-12T07:22:32.485Z,7.27
2019-01-12T07:24:59.538Z,6.87
2019-01-12T07:27:26.583Z,5.40
2019-01-12T07:29:53.630Z,6.70
2019-01-12T07:32:20.749Z,6.90
2019-01-12T07:34:47.739Z,6.83
2019-01-12T07:37:15.657Z,6.40
2019-01-12T07:39:42.644Z,6.30
2019-01-12T07:42:09.691Z,5.80
2019-01-12T07:44:36.638Z,6.13
2019-01-12T07:47:03.792Z,5.27
2019-01-12T07:49:30.941Z,5.73
2019-01-12T07:51:59.320Z,5.57
2019-01-12T07:54:26.470Z,6.50
2019-01-12T07:56:53.535Z,6.40
2019-01-12T07:59:20.626Z,9.67
2019-01-12T08:01:47.938Z,11.50
2019-01-12T08:04:14.971Z,6.87
2019-01-12T08:06:42.024Z,5.73
2019-01-12T08:09:09.374Z,7.70
2019-01-12T08:11:36.525Z,7.83
2019-01-12T08:14:03.579Z,5.90
2019-01-12T08:16:31.445Z,5.63
2019-01-12T08:18:58.497Z,4.97
2019-01-12T08:21:25.548Z,7.30
2019-01-12T08:23:53.123Z,7.80
2019-01-12T08:26:20.152Z,7.00
2019-01-12T08:28:47.195Z,9.40
2019-01-12T08:31:16.909Z,7.33
2019-01-12T08:33:43.647Z,7.33
2019-01-12T08:36:10.694Z,10.60
2019-01-12T08:38:38.870Z,6.83
2019-01-12T08:41:05.919Z,5.77
2019-01-12T08:43:32.979Z,9.10
2019-01-12T08:46:00.323Z,7.30
2019-01-12T08:48:27.373Z,10.63
2019-01-12T08:50:55.451Z,7.67
2019-01-12T08:53:22.499Z,8.43
2019-01-12T08:55:49.540Z,6.40
2019-01-12T08:58:17.206Z,9.43
2019-01-12T09:00:44.259Z,9.87
2019-01-12T09:03:11.305Z,11.03
2019-01-12T09:05:38.349Z,6.53
2019-01-12T09:08:05.353Z,12.23
2019-01-12T09:10:33.171Z,11.17
2019-01-12T09:13:00.211Z,8.03
2019-01-12T09:15:27.218Z,11.47
2019-01-12T09:17:54.205Z,8.27
2019-01-12T09:20:21.253Z,8.03
2019-01-12T09:22:48.307Z,11.53
2019-01-12T09:25:15.350Z,8.80
2019-01-12T09:27:42.399Z,13.87
2019-01-12T09:30:12.417Z,2.47
2019-01-12T09:32:39.465Z,3.73
2019-01-12T09:35:10.396Z,2.63
2019-01-12T09:37:37.479Z,14.90
2019-01-12T09:40:04.709Z,7.60
2019-01-12T09:42:31.755Z,7.97
2019-01-12T09:44:58.812Z,7.70
2019-01-12T09:47:26.160Z,6.53
2019-01-12T09:49:53.360Z,5.77
2019-01-12T09:52:20.358Z,4.30
2019-01-12T09:54:47.423Z,5.20
2019-01-12T09:57:14.504Z,5.77
2019-01-12T09:59:41.508Z,2.63
2019-01-12T10:02:08.560Z,5.93
2019-01-12T10:04:35.660Z,4.37
2019-01-12T10:07:02.723Z,5.00
2019-01-12T10:09:29.799Z,5.50
2019-01-12T10:11:56.802Z,7.40
2019-01-12T10:14:24.020Z,6.33
2019-01-12T10:16:51.049Z,4.83
2019-01-12T10:19:18.327Z,0.53
2019-01-12T10:21:46.379Z,6.33
2019-01-12T10:24:13.422Z,5.20
2019-01-12T10:26:40.575Z,2.53
2019-01-12T10:29:08.754Z,6.93
2019-01-12T10:31:38.151Z,4.03
2019-01-12T10:34:05.205Z,9.97
2019-01-12T10:36:32.453Z,8.23
2019-01-12T10:39:00.881Z,3.40
2019-01-12T10:41:31.323Z,4.07
2019-01-12T10:43:58.514Z,5.43
2019-01-12T10:46:25.567Z,5.77
2019-01-12T10:48:52.610Z,3.23
2019-01-12T10:51:20.376Z,8.00
2019-01-12T10:53:47.424Z,4.47
2019-01-12T10:56:16.521Z,7.87
2019-01-12T10:58:45.530Z,3.07
2019-01-12T11:01:12.566Z,7.17
2019-01-12T11:03:39.573Z,5.77
2019-01-12T11:06:06.558Z,7.50
2019-01-12T11:08:33.614Z,3.93
2019-01-12T11:11:00.624Z,6.83
2019-01-12T11:13:27.647Z,6.97
2019-01-12T11:15:54.605Z,8.87
2019-01-12T11:18:21.802Z,6.30
2019-01-12T11:20:48.850Z,7.73
2019-01-12T11:23:15.907Z,8.43
2019-01-12T11:25:43.294Z,6.40
2019-01-12T11:28:10.257Z,6.90
2019-01-12T11:30:37.359Z,6.10
2019-01-12T11:33:04.506Z,8.00
2019-01-12T11:35:31.549Z,11.60
2019-01-12T11:37:58.600Z,9.13
2019-01-12T11:40:26.364Z,3.60
2019-01-12T11:42:53.420Z,6.27
2019-01-12T11:45:21.389Z,6.17
2019-01-12T11:47:48.950Z,4.93
2019-01-12T11:50:16.106Z,6.23
2019-01-12T11:52:43.353Z,6.40
2019-01-12T11:55:12.041Z,5.03
2019-01-12T11:57:39.060Z,1.83
2019-01-12T12:00:06.151Z,8.67
2019-01-12T12:02:37.719Z,9.50
2019-01-12T12:05:02.747Z,10.83
2019-01-12T12:07:29.842Z,13.73
2019-01-12T12:09:56.897Z,15.67
2019-01-12T12:12:24.036Z,11.27
2019-01-12T12:14:51.047Z,12.00
2019-01-12T12:17:18.235Z,11.53
2019-01-12T12:19:45.289Z,11.20
2019-01-12T12:22:12.422Z,14.00
2019-01-12T12:24:39.543Z,15.90
2019-01-12T12:27:08.477Z,11.13
2019-01-12T12:29:35.526Z,10.30
2019-01-12T12:32:02.676Z,14.60
2019-01-12T12:34:29.733Z,13.83
2019-01-12T12:36:56.778Z,11.97
2019-01-12T12:39:23.823Z,11.47
2019-01-12T12:41:51.128Z,11.60
2019-01-12T12:44:18.240Z,11.60
2019-01-12T12:46:45.276Z,12.50
2019-01-12T12:49:12.330Z,9.20
2019-01-12T12:51:39.586Z,11.33
2019-01-12T12:54:06.640Z,11.33
2019-01-12T12:56:33.674Z,10.50
2019-01-12T12:59:02.788Z,10.63
2019-01-12T13:01:29.820Z,11.17
2019-01-12T13:03:56.834Z,11.33
2019-01-12T13:06:23.932Z,10.77
2019-01-12T13:08:50.916Z,10.77
2019-01-12T13:11:18.013Z,11.20
2019-01-12T13:13:45.067Z,10.57
2019-01-12T13:16:12.218Z,11.67
2019-01-12T13:18:39.466Z,10.93
2019-01-12T13:21:06.617Z,12.03
2019-01-12T13:23:33.671Z,12.43
2019-01-12T13:26:00.673Z,11.13
2019-01-12T13:28:29.401Z,11.93
2019-01-12T13:30:56.409Z,11.00
2019-01-12T13:33:23.503Z,11.57
2019-01-12T13:35:51.269Z,11.87
2019-01-12T13:38:18.239Z,14.13
2019-01-12T13:40:45.316Z,18.83
2019-01-12T13:43:12.511Z,16.20
2019-01-12T13:45:39.763Z,13.40
2019-01-12T13:48:06.916Z,17.70
2019-01-12T13:50:33.964Z,12.33
2019-01-12T13:53:01.020Z,12.90
2019-01-12T13:55:27.920Z,11.63
2019-01-12T13:57:55.013Z,13.17
2019-01-12T14:00:23.085Z,13.83
2019-01-12T14:02:51.159Z,13.23
2019-01-12T14:05:18.201Z,13.87
2019-01-12T14:07:45.404Z,13.53
2019-01-12T14:10:12.502Z,13.90
2019-01-12T14:12:39.885Z,13.83
2019-01-12T14:15:07.009Z,14.47
2019-01-12T14:17:34.063Z,14.67
2019-01-12T14:20:01.109Z,13.90
2019-01-12T14:22:28.172Z,16.33
2019-01-12T14:24:55.110Z,15.30
2019-01-12T14:27:22.149Z,14.63
2019-01-12T14:29:49.203Z,15.83
2019-01-12T14:32:16.257Z,15.80
2019-01-12T14:34:43.505Z,15.03
2019-01-12T14:37:10.549Z,14.67
2019-01-12T14:39:37.601Z,14.70
2019-01-12T14:42:04.656Z,14.60
2019-01-12T14:44:32.336Z,15.53
2019-01-12T14:46:59.358Z,17.73
2019-01-12T14:49:26.414Z,15.50
2019-01-12T14:51:53.350Z,13.83
2019-01-12T14:54:20.407Z,15.37
2019-01-12T14:56:48.576Z,13.97
2019-01-12T14:59:15.954Z,14.40
2019-01-12T15:01:43.016Z,12.63
2019-01-12T15:04:10.030Z,14.47
2019-01-12T15:06:37.115Z,19.43
2019-01-12T15:09:04.184Z,14.03
2019-01-12T15:11:33.017Z,15.37
2019-01-12T15:14:00.071Z,21.70
2019-01-12T15:16:28.809Z,17.10
2019-01-12T15:18:55.862Z,14.80
2019-01-12T15:21:23.259Z,13.93
2019-01-12T15:23:50.790Z,13.93
2019-01-12T15:26:17.868Z,13.20
2019-01-12T15:28:44.916Z,13.73
2019-01-12T15:31:11.963Z,29.23
2019-01-12T15:33:39.014Z,25.50
2019-01-12T15:36:06.044Z,16.80
2019-01-12T15:38:33.521Z,24.10
2019-01-12T15:41:00.584Z,29.13
2019-01-12T15:43:27.618Z,14.70
2019-01-12T15:45:54.740Z,13.23
2019-01-12T15:48:21.821Z,13.30
2019-01-12T15:50:48.774Z,13.13
2019-01-12T15:53:16.283Z,14.10
2019-01-12T15:55:44.608Z,12.10
2019-01-12T15:58:16.319Z,15.43
2019-01-12T16:00:42.591Z,16.80
2019-01-12T16:03:09.741Z,19.37
2019-01-12T16:05:36.771Z,26.73
2019-01-12T16:08:03.844Z,25.83
2019-01-12T16:10:30.891Z,32.33
2019-01-12T16:12:57.933Z,19.43
2019-01-12T16:15:25.017Z,22.97
2019-01-12T16:17:52.138Z,20.47
2019-01-12T16:20:21.871Z,18.07
2019-01-12T16:22:49.000Z,20.97
2019-01-12T16:25:16.111Z,20.90
2019-01-12T16:27:43.201Z,19.77
2019-01-12T16:30:26.116Z,20.23
2019-01-12T16:32:53.171Z,20.10
2019-01-12T16:35:20.322Z,21.13
2019-01-12T16:37:47.386Z,21.90
2019-01-12T16:40:15.440Z,26.10
2019-01-12T16:42:44.509Z,32.53
2019-01-12T16:45:11.705Z,31.10
2019-01-12T16:47:38.709Z,29.97
2019-01-12T16:50:05.811Z,30.23
2019-01-12T16:52:32.783Z,30.00
2019-01-12T16:54:59.837Z,43.00
2019-01-12T16:57:26.927Z,32.67
2019-01-12T16:59:54.078Z,23.20
2019-01-12T17:02:22.723Z,21.20
2019-01-12T17:04:49.835Z,19.53
2019-01-12T17:07:16.818Z,19.67
2019-01-12T17:09:43.794Z,15.43
2019-01-12T17:12:10.833Z,15.97
2019-01-12T17:14:37.905Z,18.60
2019-01-12T17:17:05.158Z,17.73
2019-01-12T17:19:32.171Z,14.07
2019-01-12T17:21:59.260Z,13.70
2019-01-12T17:24:26.427Z,16.43
2019-01-12T17:26:53.563Z,15.47
2019-01-12T17:29:20.715Z,16.10
2019-01-12T17:31:47.791Z,18.33
2019-01-12T17:34:20.197Z,22.43
2019-01-12T17:36:58.679Z,16.90
2019-01-12T17:39:23.551Z,11.80
2019-01-12T17:41:50.600Z,12.60
2019-01-12T17:44:39.805Z,13.03
2019-01-12T17:47:24.458Z,14.67
2019-01-12T17:49:51.578Z,13.50
2019-01-12T17:52:18.624Z,14.97
2019-01-12T17:54:45.632Z,20.67
2019-01-12T17:57:12.684Z,23.33
2019-01-12T18:00:02.089Z,11.87
2019-01-12T18:02:29.140Z,14.70
2019-01-12T18:04:56.192Z,15.90
2019-01-12T18:07:25.189Z,11.30
2019-01-12T18:09:52.338Z,12.47
2019-01-12T18:12:19.386Z,10.20
2019-01-12T18:14:46.449Z,14.57
2019-01-12T18:17:13.480Z,14.67
2019-01-12T18:19:41.004Z,20.97
2019-01-12T18:22:07.935Z,9.60
2019-01-12T18:24:34.890Z,20.37
2019-01-12T18:27:01.885Z,27.43
2019-01-12T18:29:28.883Z,10.43
2019-01-12T18:31:55.981Z,16.03
2019-01-12T18:34:23.028Z,18.10
2019-01-12T18:36:50.070Z,11.97
2019-01-12T18:39:17.125Z,11.87
2019-01-12T18:41:44.169Z,11.87
2019-01-12T18:44:11.218Z,12.47
2019-01-12T18:46:39.384Z,12.20
2019-01-12T18:49:05.728Z,10.87
2019-01-12T18:51:32.772Z,11.00
2019-01-12T18:53:59.821Z,14.20
2019-01-12T18:56:26.831Z,16.50
2019-01-12T18:58:58.877Z,12.30
2019-01-12T19:01:20.965Z,11.27
2019-01-12T19:03:48.529Z,10.60
2019-01-12T19:06:15.479Z,11.53
2019-01-12T19:08:42.522Z,13.83
2019-01-12T19:11:09.878Z,12.60
2019-01-12T19:13:39.191Z,12.00
2019-01-12T19:16:08.588Z,10.73
2019-01-12T19:18:37.228Z,10.37
2019-01-12T19:21:04.223Z,10.67
2019-01-12T19:23:31.679Z,11.67
2019-01-12T19:25:58.786Z,11.53
2019-01-12T19:28:26.907Z,11.90
2019-01-12T19:30:53.945Z,11.07
2019-01-12T19:33:20.992Z,10.23
2019-01-12T19:35:48.047Z,10.87
2019-01-12T19:38:15.091Z,9.53
2019-01-12T19:40:42.241Z,15.27
2019-01-12T19:43:09.394Z,11.53
2019-01-12T19:45:36.443Z,9.73
2019-01-12T19:48:03.510Z,12.77
2019-01-12T19:50:30.508Z,9.47
2019-01-12T19:52:59.383Z,12.77
2019-01-12T19:55:26.484Z,12.40
2019-01-12T19:57:53.527Z,11.93
2019-01-12T20:00:21.919Z,10.83
2019-01-12T20:02:48.957Z,14.93
2019-01-12T20:05:16.107Z,12.83
2019-01-12T20:07:43.171Z,15.93
2019-01-12T20:10:10.311Z,11.13
2019-01-12T20:12:37.320Z,13.37
2019-01-12T20:15:04.401Z,13.17
2019-01-12T20:17:31.454Z,17.37
2019-01-12T20:19:58.499Z,24.33
2019-01-12T20:22:25.542Z,17.00
2019-01-12T20:24:52.544Z,13.67
2019-01-12T20:27:19.542Z,12.93
2019-01-12T20:29:46.600Z,16.10
2019-01-12T20:32:26.192Z,12.87
2019-01-12T20:34:53.283Z,10.87
2019-01-12T20:37:27.096Z,14.53
2019-01-12T20:40:00.185Z,11.67
2019-01-12T20:42:45.456Z,14.37
2019-01-12T20:45:18.597Z,12.90
2019-01-12T20:47:45.807Z,10.97
2019-01-12T20:50:12.849Z,11.13
2019-01-12T20:52:41.739Z,14.43
2019-01-12T20:55:13.805Z,11.97
2019-01-12T20:57:40.860Z,10.77
2019-01-12T21:00:28.689Z,13.53
2019-01-12T21:02:59.684Z,9.83
2019-01-12T21:05:29.752Z,10.83
2019-01-12T21:07:56.904Z,13.47
2019-01-12T21:10:23.954Z,12.07
2019-01-12T21:12:54.178Z,13.10
2019-01-12T21:15:21.221Z,12.70
2019-01-12T21:17:48.269Z,13.27
2019-01-12T21:20:15.325Z,10.70
2019-01-12T21:22:42.369Z,12.77
2019-01-12T21:25:09.326Z,12.00
2019-01-12T21:27:36.369Z,12.43
2019-01-12T21:30:03.622Z,13.87
2019-01-12T21:32:30.665Z,10.73
2019-01-12T21:34:58.425Z,13.30
2019-01-12T21:37:26.708Z,10.97
2019-01-12T21:39:53.652Z,15.73
2019-01-12T21:42:20.701Z,14.83
2019-01-12T21:44:47.752Z,8.10
2019-01-12T21:47:14.796Z,9.20
2019-01-12T21:49:41.845Z,12.43
2019-01-12T21:52:12.073Z,12.07
2019-01-12T21:54:39.219Z,12.83
2019-01-12T21:57:06.226Z,14.13
2019-01-12T21:59:33.316Z,14.60
2019-01-12T22:02:00.420Z,7.37
2019-01-12T22:04:27.419Z,12.20
2019-01-12T22:06:54.423Z,12.30
2019-01-12T22:09:21.512Z,13.83
2019-01-12T22:11:48.563Z,11.57
2019-01-12T22:14:15.609Z,15.30
2019-01-12T22:16:42.655Z,8.87
2019-01-12T22:19:09.960Z,11.90
2019-01-12T22:21:36.920Z,12.37
2019-01-12T22:24:03.981Z,7.70
2019-01-12T22:26:31.259Z,13.70
2019-01-12T22:28:58.324Z,16.23
2019-01-12T22:31:25.357Z,13.90
2019-01-12T22:33:52.617Z,13.47
2019-01-12T22:36:19.768Z,7.73
2019-01-12T22:38:47.115Z,8.53
2019-01-12T22:41:14.163Z,14.10
2019-01-12T22:43:41.217Z,21.40
2019-01-12T22:46:08.263Z,16.03
2019-01-12T22:48:35.324Z,11.93
2019-01-12T22:51:03.283Z,13.50
2019-01-12T22:53:30.329Z,13.03
2019-01-12T22:55:57.376Z,16.70
2019-01-12T22:58:24.480Z,13.47
2019-01-12T23:00:56.496Z,10.83
2019-01-12T23:03:23.645Z,15.43
2019-01-12T23:05:51.509Z,14.83
2019-01-12T23:08:18.562Z,12.40
2019-01-12T23:10:45.607Z,15.20
2019-01-12T23:13:14.403Z,12.93
2019-01-12T23:15:41.443Z,11.30
2019-01-12T23:18:08.452Z,13.47
2019-01-12T23:20:35.561Z,12.73
2019-01-12T23:23:02.592Z,11.10
2019-01-12T23:25:29.641Z,5.47
2019-01-12T23:27:56.693Z,12.83
2019-01-12T23:30:23.736Z,10.03
2019-01-12T23:32:51.607Z,3.80
2019-01-12T23:35:18.655Z,8.80
2019-01-12T23:37:47.855Z,10.40
2019-01-12T23:40:14.905Z,7.60
2019-01-12T23:42:41.947Z,9.87
2019-01-12T23:45:08.995Z,4.37
2019-01-12T23:47:36.049Z,3.27
2019-01-12T23:50:03.092Z,5.33
2019-01-12T23:52:30.140Z,5.70
2019-01-12T23:54:57.198Z,12.73
2019-01-12T23:57:24.236Z,13.60
2019-01-12T23:59:53.129Z,8.67
